Como, CO

26. elokuuta 2016 klo 00:43 (MDT) (GMT -0600)
Office of Jefferson Real Estate | | Change Station

Kork 9528 ft 39.38 °N, 105.80 °W | Updated 10 minutes ago

Overcast
Täysin pilvistä
70.3 °F
Tuntuu kuin 76 °F
N
0.0
Tuuli Suunnaltaan vaihteleva Tuuli ilmansuunnasta Luode

Tänään
Korkea -- | Matala -- °F
--% Sateen mahd.
Eilen
Korkea -- | Matala -- °F
Precip. -- tuumaa
Ilmanpaine 30.44 tuumaa
Näkyvyys 10.0 mailia
Pilviä Pilvistä 2800 ft
Pilvistä 3200 ft
Täysin pilvistä 7500 ft
Lämpötilaindeksi 76 °F
Kastepiste 39 °F
Ilmankosteus 32%
Sademäärä 0.00 tuumaa
Lumensyvyys Ei saatavilla
6:27 AM 7:42 PM
Viimeinen neljännes, 37% visible
SPECI KLXV 260630Z AUTO 00000KT 10SM BKN028 BKN032 OVC075 03/02 A3044 RMK AO2 T00330022 TSNO
Ilmanpaine 30.44 tuumaa
Näkyvyys 10.0 mailia
Pilviä Pilvistä 2800 ft
Pilvistä 3200 ft
Täysin pilvistä 7500 ft
Lämpötilaindeksi 76 °F
Kastepiste 39 °F
Ilmankosteus 32%
Sademäärä 0.00 tuumaa
Lumensyvyys Ei saatavilla
6:27 AM 7:42 PM
Viimeinen neljännes, 37% visible
SPECI KLXV 260630Z AUTO 00000KT 10SM BKN028 BKN032 OVC075 03/02 A3044 RMK AO2 T00330022 TSNO

10-Day Weather Forecast

Almanac

Tähtitiede

Aug. 26, 2016 Nousuaika Laskuaika
Valoisa aika
Porvarillinen hämärä
Nauttinen hämärä
Astronominen hämärä
Kuu
Näkyvän valon pituus
Päivän pituus
Tomorrow will be .
, % of the Moon is Illuminated

Tämän päivän ennätykset

State Highs State Lows

Community

WunderPhotos

Upload Photos

1,935,063 photos uploaded!

WunderBlog® & News

Nearby

Ilmanlaatu

  Ilmanlaatu AQ Index Pollutant
Not available.

Lumensyvyys

Station Depth Korkeus

Maanjäristysaktiivisuus

Paikkakunta Distance Mag. Time & Date
Minimum magnitude displayed is 2.5.

Coastal Water Temperatures

Paikka Lämpötila

Stations

Lähimmät sääasemat

Aseman sijainti Lämpötila Tuulen hyytävyys Kastepiste Ilmankosteus Tuuli Precip. Kork Päivitetty Tyyppi
                   

Watches & Warnings

There are currently no watches in effect.